sensor_id;sensor_type;location;lat;lon;timestamp;P1;durP1;ratioP1;P2;durP2;ratioP2
35424;SDS011;21537;48.226;16.400;2022-08-20T00:00:22;4.93;;;3.72;;
35424;SDS011;21537;48.226;16.400;2022-08-20T00:02:51;6.55;;;4.60;;
35424;SDS011;21537;48.226;16.400;2022-08-20T00:05:20;6.95;;;4.18;;
35424;SDS011;21537;48.226;16.400;2022-08-20T00:07:55;6.47;;;4.15;;
35424;SDS011;21537;48.226;16.400;2022-08-20T00:10:23;6.80;;;4.30;;
35424;SDS011;21537;48.226;16.400;2022-08-20T00:12:49;8.82;;;3.63;;
35424;SDS011;21537;48.226;16.400;2022-08-20T00:15:17;12.80;;;4.68;;
35424;SDS011;21537;48.226;16.400;2022-08-20T00:17:48;6.18;;;3.40;;
35424;SDS011;21537;48.226;16.400;2022-08-20T00:20:15;7.45;;;3.63;;
35424;SDS011;21537;48.226;16.400;2022-08-20T00:22:43;5.90;;;3.85;;
35424;SDS011;21537;48.226;16.400;2022-08-20T00:25:09;5.13;;;3.35;;
35424;SDS011;21537;48.226;16.400;2022-08-20T00:27:36;4.30;;;3.47;;
35424;SDS011;21537;48.226;16.400;2022-08-20T00:30:04;5.80;;;3.58;;
35424;SDS011;21537;48.226;16.400;2022-08-20T00:32:39;6.32;;;3.30;;
35424;SDS011;21537;48.226;16.400;2022-08-20T00:35:18;6.63;;;4.15;;
35424;SDS011;21537;48.226;16.400;2022-08-20T00:37:46;6.18;;;3.72;;
35424;SDS011;21537;48.226;16.400;2022-08-20T00:40:13;7.13;;;3.88;;
35424;SDS011;21537;48.226;16.400;2022-08-20T00:42:42;5.13;;;3.17;;
35424;SDS011;21537;48.226;16.400;2022-08-20T00:45:12;4.38;;;3.60;;
35424;SDS011;21537;48.226;16.400;2022-08-20T00:47:39;6.82;;;3.92;;
35424;SDS011;21537;48.226;16.400;2022-08-20T00:50:10;5.57;;;3.30;;
35424;SDS011;21537;48.226;16.400;2022-08-20T00:52:37;5.00;;;3.33;;
35424;SDS011;21537;48.226;16.400;2022-08-20T00:55:06;4.68;;;3.40;;
35424;SDS011;21537;48.226;16.400;2022-08-20T00:57:37;4.80;;;3.33;;
35424;SDS011;21537;48.226;16.400;2022-08-20T01:00:13;3.90;;;3.10;;
35424;SDS011;21537;48.226;16.400;2022-08-20T01:02:44;5.80;;;3.22;;
35424;SDS011;21537;48.226;16.400;2022-08-20T01:05:11;4.80;;;3.08;;
35424;SDS011;21537;48.226;16.400;2022-08-20T01:07:39;4.20;;;3.13;;
35424;SDS011;21537;48.226;16.400;2022-08-20T01:10:18;4.38;;;3.17;;
35424;SDS011;21537;48.226;16.400;2022-08-20T01:12:50;3.72;;;2.97;;
35424;SDS011;21537;48.226;16.400;2022-08-20T01:15:18;3.50;;;2.63;;
35424;SDS011;21537;48.226;16.400;2022-08-20T01:17:48;4.03;;;2.80;;
35424;SDS011;21537;48.226;16.400;2022-08-20T01:20:33;3.53;;;2.58;;
35424;SDS011;21537;48.226;16.400;2022-08-20T01:25:58;5.72;;;2.70;;
35424;SDS011;21537;48.226;16.400;2022-08-20T01:28:59;2.95;;;2.47;;
35424;SDS011;21537;48.226;16.400;2022-08-20T01:31:28;4.32;;;2.72;;
35424;SDS011;21537;48.226;16.400;2022-08-20T01:33:56;2.95;;;2.42;;
35424;SDS011;21537;48.226;16.400;2022-08-20T01:36:25;3.30;;;2.30;;
35424;SDS011;21537;48.226;16.400;2022-08-20T01:43:56;3.65;;;1.80;;
35424;SDS011;21537;48.226;16.400;2022-08-20T01:46:27;2.63;;;2.30;;
35424;SDS011;21537;48.226;16.400;2022-08-20T01:48:57;2.60;;;1.95;;
35424;SDS011;21537;48.226;16.400;2022-08-20T01:51:25;3.60;;;2.22;;
35424;SDS011;21537;48.226;16.400;2022-08-20T01:53:55;3.10;;;2.10;;
35424;SDS011;21537;48.226;16.400;2022-08-20T01:56:25;2.95;;;2.17;;
35424;SDS011;21537;48.226;16.400;2022-08-20T01:58:53;2.70;;;1.95;;
35424;SDS011;21537;48.226;16.400;2022-08-20T02:03:53;4.10;;;2.00;;
35424;SDS011;21537;48.226;16.400;2022-08-20T02:06:20;1.98;;;1.70;;
35424;SDS011;21537;48.226;16.400;2022-08-20T02:08:55;2.00;;;1.80;;
35424;SDS011;21537;48.226;16.400;2022-08-20T02:11:24;1.67;;;1.58;;
35424;SDS011;21537;48.226;16.400;2022-08-20T02:13:51;2.63;;;1.58;;
35424;SDS011;21537;48.226;16.400;2022-08-20T02:16:18;1.95;;;1.67;;
35424;SDS011;21537;48.226;16.400;2022-08-20T02:18:49;1.67;;;1.33;;
35424;SDS011;21537;48.226;16.400;2022-08-20T02:21:23;1.70;;;1.60;;
35424;SDS011;21537;48.226;16.400;2022-08-20T02:23:52;1.55;;;1.23;;
35424;SDS011;21537;48.226;16.400;2022-08-20T02:26:18;2.58;;;1.40;;
35424;SDS011;21537;48.226;16.400;2022-08-20T02:28:45;2.58;;;1.50;;
35424;SDS011;21537;48.226;16.400;2022-08-20T02:31:14;2.08;;;1.65;;
35424;SDS011;21537;48.226;16.400;2022-08-20T02:33:42;1.20;;;1.10;;
35424;SDS011;21537;48.226;16.400;2022-08-20T02:36:08;1.40;;;1.30;;
35424;SDS011;21537;48.226;16.400;2022-08-20T02:38:37;2.05;;;1.20;;
35424;SDS011;21537;48.226;16.400;2022-08-20T02:41:04;1.20;;;1.10;;
35424;SDS011;21537;48.226;16.400;2022-08-20T02:43:30;1.20;;;1.10;;
35424;SDS011;21537;48.226;16.400;2022-08-20T02:45:56;1.67;;;1.42;;
35424;SDS011;21537;48.226;16.400;2022-08-20T02:48:23;4.13;;;1.25;;
35424;SDS011;21537;48.226;16.400;2022-08-20T02:50:50;1.48;;;1.30;;
35424;SDS011;21537;48.226;16.400;2022-08-20T02:53:21;1.63;;;1.30;;
35424;SDS011;21537;48.226;16.400;2022-08-20T02:55:48;3.10;;;1.20;;
35424;SDS011;21537;48.226;16.400;2022-08-20T02:58:14;1.63;;;1.42;;
35424;SDS011;21537;48.226;16.400;2022-08-20T03:00:41;1.50;;;1.38;;
35424;SDS011;21537;48.226;16.400;2022-08-20T03:03:09;1.38;;;1.27;;
35424;SDS011;21537;48.226;16.400;2022-08-20T03:05:36;4.65;;;1.83;;
35424;SDS011;21537;48.226;16.400;2022-08-20T03:08:04;1.92;;;1.50;;
35424;SDS011;21537;48.226;16.400;2022-08-20T03:10:33;1.85;;;1.42;;
35424;SDS011;21537;48.226;16.400;2022-08-20T03:13:00;1.48;;;1.38;;
35424;SDS011;21537;48.226;16.400;2022-08-20T03:15:28;2.53;;;1.55;;
35424;SDS011;21537;48.226;16.400;2022-08-20T03:17:55;1.60;;;1.40;;
35424;SDS011;21537;48.226;16.400;2022-08-20T03:20:22;1.75;;;1.50;;
35424;SDS011;21537;48.226;16.400;2022-08-20T03:22:48;2.30;;;1.98;;
35424;SDS011;21537;48.226;16.400;2022-08-20T03:25:14;2.55;;;1.90;;
35424;SDS011;21537;48.226;16.400;2022-08-20T03:27:40;5.82;;;4.43;;
35424;SDS011;21537;48.226;16.400;2022-08-20T03:30:08;2.63;;;2.20;;
35424;SDS011;21537;48.226;16.400;2022-08-20T03:32:35;2.85;;;2.42;;
35424;SDS011;21537;48.226;16.400;2022-08-20T03:35:03;3.53;;;2.67;;
35424;SDS011;21537;48.226;16.400;2022-08-20T03:37:31;3.25;;;2.53;;
35424;SDS011;21537;48.226;16.400;2022-08-20T03:39:58;4.93;;;2.58;;
35424;SDS011;21537;48.226;16.400;2022-08-20T03:42:25;5.72;;;2.88;;
35424;SDS011;21537;48.226;16.400;2022-08-20T03:44:51;3.42;;;2.50;;
35424;SDS011;21537;48.226;16.400;2022-08-20T03:47:17;3.67;;;2.20;;
35424;SDS011;21537;48.226;16.400;2022-08-20T03:49:44;3.10;;;2.53;;
35424;SDS011;21537;48.226;16.400;2022-08-20T03:52:10;3.65;;;2.60;;
35424;SDS011;21537;48.226;16.400;2022-08-20T03:54:36;3.47;;;2.63;;
35424;SDS011;21537;48.226;16.400;2022-08-20T03:57:02;4.15;;;3.08;;
35424;SDS011;21537;48.226;16.400;2022-08-20T03:59:29;3.40;;;2.67;;
35424;SDS011;21537;48.226;16.400;2022-08-20T04:01:57;4.30;;;2.13;;
35424;SDS011;21537;48.226;16.400;2022-08-20T04:04:24;3.30;;;2.30;;
35424;SDS011;21537;48.226;16.400;2022-08-20T04:06:50;3.35;;;2.10;;
35424;SDS011;21537;48.226;16.400;2022-08-20T04:09:16;2.63;;;2.00;;
35424;SDS011;21537;48.226;16.400;2022-08-20T04:11:42;4.35;;;2.22;;
35424;SDS011;21537;48.226;16.400;2022-08-20T04:14:08;3.85;;;2.13;;
35424;SDS011;21537;48.226;16.400;2022-08-20T04:16:35;2.45;;;1.92;;
35424;SDS011;21537;48.226;16.400;2022-08-20T04:19:02;2.13;;;1.92;;
35424;SDS011;21537;48.226;16.400;2022-08-20T04:21:30;3.03;;;1.73;;
35424;SDS011;21537;48.226;16.400;2022-08-20T04:23:57;3.75;;;1.85;;
35424;SDS011;21537;48.226;16.400;2022-08-20T04:26:23;1.50;;;1.40;;
35424;SDS011;21537;48.226;16.400;2022-08-20T04:28:49;2.03;;;1.63;;
35424;SDS011;21537;48.226;16.400;2022-08-20T04:31:17;3.92;;;1.65;;
35424;SDS011;21537;48.226;16.400;2022-08-20T04:33:42;2.33;;;1.40;;
35424;SDS011;21537;48.226;16.400;2022-08-20T04:36:08;1.75;;;1.55;;
35424;SDS011;21537;48.226;16.400;2022-08-20T04:38:34;1.92;;;1.55;;
35424;SDS011;21537;48.226;16.400;2022-08-20T04:41:00;1.67;;;1.20;;
35424;SDS011;21537;48.226;16.400;2022-08-20T04:43:29;2.03;;;1.48;;
35424;SDS011;21537;48.226;16.400;2022-08-20T04:46:01;3.95;;;1.52;;
35424;SDS011;21537;48.226;16.400;2022-08-20T04:48:34;1.88;;;1.60;;
35424;SDS011;21537;48.226;16.400;2022-08-20T04:51:03;2.90;;;1.55;;
35424;SDS011;21537;48.226;16.400;2022-08-20T04:53:30;1.60;;;1.40;;
35424;SDS011;21537;48.226;16.400;2022-08-20T04:55:57;4.25;;;1.30;;
35424;SDS011;21537;48.226;16.400;2022-08-20T04:58:29;1.75;;;1.40;;
35424;SDS011;21537;48.226;16.400;2022-08-20T05:00:59;1.83;;;1.27;;
35424;SDS011;21537;48.226;16.400;2022-08-20T05:03:28;3.35;;;1.30;;
35424;SDS011;21537;48.226;16.400;2022-08-20T05:05:54;2.25;;;1.20;;
35424;SDS011;21537;48.226;16.400;2022-08-20T05:08:21;1.55;;;1.40;;
35424;SDS011;21537;48.226;16.400;2022-08-20T05:10:49;2.40;;;1.70;;
35424;SDS011;21537;48.226;16.400;2022-08-20T05:13:16;1.73;;;1.40;;
35424;SDS011;21537;48.226;16.400;2022-08-20T05:15:41;1.77;;;1.52;;
35424;SDS011;21537;48.226;16.400;2022-08-20T05:18:10;2.30;;;1.40;;
35424;SDS011;21537;48.226;16.400;2022-08-20T05:20:38;2.65;;;1.73;;
35424;SDS011;21537;48.226;16.400;2022-08-20T05:23:06;2.13;;;1.50;;
35424;SDS011;21537;48.226;16.400;2022-08-20T05:25:34;2.78;;;1.58;;
35424;SDS011;21537;48.226;16.400;2022-08-20T05:28:04;4.35;;;1.92;;
35424;SDS011;21537;48.226;16.400;2022-08-20T05:30:34;3.97;;;1.67;;
35424;SDS011;21537;48.226;16.400;2022-08-20T05:33:02;4.28;;;1.60;;
35424;SDS011;21537;48.226;16.400;2022-08-20T05:35:30;2.53;;;1.40;;
35424;SDS011;21537;48.226;16.400;2022-08-20T05:37:59;1.85;;;1.58;;
35424;SDS011;21537;48.226;16.400;2022-08-20T05:40:26;2.40;;;1.38;;
35424;SDS011;21537;48.226;16.400;2022-08-20T05:42:53;3.65;;;1.83;;
35424;SDS011;21537;48.226;16.400;2022-08-20T05:45:19;2.33;;;1.40;;
35424;SDS011;21537;48.226;16.400;2022-08-20T05:47:46;1.83;;;1.38;;
35424;SDS011;21537;48.226;16.400;2022-08-20T05:50:13;7.30;;;1.55;;
35424;SDS011;21537;48.226;16.400;2022-08-20T05:52:40;2.55;;;1.30;;
35424;SDS011;21537;48.226;16.400;2022-08-20T05:55:08;2.17;;;1.05;;
35424;SDS011;21537;48.226;16.400;2022-08-20T05:57:37;1.45;;;1.27;;
35424;SDS011;21537;48.226;16.400;2022-08-20T06:00:05;2.63;;;1.20;;
35424;SDS011;21537;48.226;16.400;2022-08-20T06:02:36;1.50;;;1.38;;
35424;SDS011;21537;48.226;16.400;2022-08-20T06:05:21;0.82;;;0.82;;
35424;SDS011;21537;48.226;16.400;2022-08-20T06:07:47;1.88;;;1.10;;
35424;SDS011;21537;48.226;16.400;2022-08-20T06:10:15;1.48;;;0.90;;
35424;SDS011;21537;48.226;16.400;2022-08-20T06:12:41;2.60;;;0.80;;
35424;SDS011;21537;48.226;16.400;2022-08-20T06:15:09;1.48;;;1.08;;
35424;SDS011;21537;48.226;16.400;2022-08-20T06:17:36;1.85;;;0.80;;
35424;SDS011;21537;48.226;16.400;2022-08-20T06:20:04;0.95;;;0.85;;
35424;SDS011;21537;48.226;16.400;2022-08-20T06:22:32;2.38;;;0.80;;
35424;SDS011;21537;48.226;16.400;2022-08-20T06:24:58;0.80;;;0.80;;
35424;SDS011;21537;48.226;16.400;2022-08-20T06:27:25;2.97;;;0.80;;
35424;SDS011;21537;48.226;16.400;2022-08-20T06:29:52;1.05;;;0.82;;
35424;SDS011;21537;48.226;16.400;2022-08-20T06:32:19;1.02;;;0.77;;
35424;SDS011;21537;48.226;16.400;2022-08-20T06:34:47;1.13;;;0.73;;
35424;SDS011;21537;48.226;16.400;2022-08-20T06:39:54;1.52;;;0.85;;
35424;SDS011;21537;48.226;16.400;2022-08-20T06:45:12;7.50;;;0.87;;
35424;SDS011;21537;48.226;16.400;2022-08-20T06:47:42;0.88;;;0.68;;
35424;SDS011;21537;48.226;16.400;2022-08-20T06:50:10;0.85;;;0.68;;
35424;SDS011;21537;48.226;16.400;2022-08-20T06:52:43;1.80;;;0.75;;
35424;SDS011;21537;48.226;16.400;2022-08-20T06:58:06;0.88;;;0.77;;
35424;SDS011;21537;48.226;16.400;2022-08-20T07:00:35;3.40;;;1.13;;
35424;SDS011;21537;48.226;16.400;2022-08-20T07:03:06;1.25;;;0.77;;
35424;SDS011;21537;48.226;16.400;2022-08-20T07:05:36;3.83;;;0.90;;
35424;SDS011;21537;48.226;16.400;2022-08-20T07:08:07;0.80;;;0.80;;
35424;SDS011;21537;48.226;16.400;2022-08-20T07:10:41;1.13;;;0.52;;
35424;SDS011;21537;48.226;16.400;2022-08-20T07:13:07;1.58;;;1.10;;
35424;SDS011;21537;48.226;16.400;2022-08-20T07:15:35;1.33;;;0.98;;
35424;SDS011;21537;48.226;16.400;2022-08-20T07:18:05;3.45;;;0.90;;
35424;SDS011;21537;48.226;16.400;2022-08-20T07:20:32;1.55;;;0.60;;
35424;SDS011;21537;48.226;16.400;2022-08-20T07:23:06;1.73;;;1.13;;
35424;SDS011;21537;48.226;16.400;2022-08-20T07:25:39;1.25;;;0.80;;
35424;SDS011;21537;48.226;16.400;2022-08-20T07:28:14;1.17;;;0.80;;
35424;SDS011;21537;48.226;16.400;2022-08-20T07:30:44;1.30;;;0.90;;
35424;SDS011;21537;48.226;16.400;2022-08-20T07:33:30;4.82;;;0.90;;
35424;SDS011;21537;48.226;16.400;2022-08-20T07:35:57;2.70;;;0.85;;
35424;SDS011;21537;48.226;16.400;2022-08-20T07:38:25;0.70;;;0.70;;
35424;SDS011;21537;48.226;16.400;2022-08-20T07:40:58;3.70;;;0.70;;
35424;SDS011;21537;48.226;16.400;2022-08-20T07:43:29;2.22;;;1.00;;
35424;SDS011;21537;48.226;16.400;2022-08-20T07:45:56;3.47;;;0.70;;
35424;SDS011;21537;48.226;16.400;2022-08-20T07:48:25;1.17;;;0.70;;
35424;SDS011;21537;48.226;16.400;2022-08-20T07:50:54;2.28;;;0.60;;
35424;SDS011;21537;48.226;16.400;2022-08-20T07:53:20;1.90;;;0.80;;
35424;SDS011;21537;48.226;16.400;2022-08-20T07:55:46;1.58;;;1.33;;
35424;SDS011;21537;48.226;16.400;2022-08-20T07:58:13;2.53;;;0.73;;
35424;SDS011;21537;48.226;16.400;2022-08-20T08:00:42;0.57;;;0.57;;
35424;SDS011;21537;48.226;16.400;2022-08-20T08:03:09;1.08;;;0.82;;
35424;SDS011;21537;48.226;16.400;2022-08-20T08:05:38;0.95;;;0.70;;
35424;SDS011;21537;48.226;16.400;2022-08-20T08:08:20;8.40;;;0.80;;
35424;SDS011;21537;48.226;16.400;2022-08-20T08:10:51;1.08;;;0.85;;
35424;SDS011;21537;48.226;16.400;2022-08-20T08:13:26;3.13;;;0.57;;
35424;SDS011;21537;48.226;16.400;2022-08-20T08:15:55;1.67;;;0.70;;
35424;SDS011;21537;48.226;16.400;2022-08-20T08:18:26;0.95;;;0.65;;
35424;SDS011;21537;48.226;16.400;2022-08-20T08:20:58;2.88;;;0.70;;
35424;SDS011;21537;48.226;16.400;2022-08-20T08:23:24;0.73;;;0.60;;
35424;SDS011;21537;48.226;16.400;2022-08-20T08:25:52;1.05;;;0.63;;
35424;SDS011;21537;48.226;16.400;2022-08-20T08:28:18;1.73;;;0.60;;
35424;SDS011;21537;48.226;16.400;2022-08-20T08:30:45;2.42;;;0.60;;
35424;SDS011;21537;48.226;16.400;2022-08-20T08:33:22;2.60;;;0.60;;
35424;SDS011;21537;48.226;16.400;2022-08-20T08:35:56;1.73;;;0.82;;
35424;SDS011;21537;48.226;16.400;2022-08-20T08:38:24;0.85;;;0.55;;
35424;SDS011;21537;48.226;16.400;2022-08-20T08:40:51;0.80;;;0.80;;
35424;SDS011;21537;48.226;16.400;2022-08-20T08:43:19;1.00;;;0.80;;
35424;SDS011;21537;48.226;16.400;2022-08-20T08:46:10;2.45;;;0.60;;
35424;SDS011;21537;48.226;16.400;2022-08-20T08:48:39;2.83;;;1.10;;
35424;SDS011;21537;48.226;16.400;2022-08-20T08:51:10;1.10;;;0.82;;
35424;SDS011;21537;48.226;16.400;2022-08-20T08:53:41;0.80;;;0.70;;
35424;SDS011;21537;48.226;16.400;2022-08-20T08:56:10;1.63;;;0.85;;
35424;SDS011;21537;48.226;16.400;2022-08-20T08:58:38;3.40;;;0.93;;
35424;SDS011;21537;48.226;16.400;2022-08-20T09:01:09;1.42;;;1.13;;
35424;SDS011;21537;48.226;16.400;2022-08-20T09:03:38;1.95;;;1.08;;
35424;SDS011;21537;48.226;16.400;2022-08-20T09:06:08;2.45;;;1.13;;
35424;SDS011;21537;48.226;16.400;2022-08-20T09:08:43;3.25;;;1.30;;
35424;SDS011;21537;48.226;16.400;2022-08-20T09:11:13;1.80;;;1.30;;
35424;SDS011;21537;48.226;16.400;2022-08-20T09:13:40;2.63;;;1.00;;
35424;SDS011;21537;48.226;16.400;2022-08-20T09:16:07;1.10;;;1.00;;
35424;SDS011;21537;48.226;16.400;2022-08-20T09:18:34;0.90;;;0.90;;
35424;SDS011;21537;48.226;16.400;2022-08-20T09:20:59;2.38;;;1.20;;
35424;SDS011;21537;48.226;16.400;2022-08-20T09:23:25;2.60;;;1.30;;
35424;SDS011;21537;48.226;16.400;2022-08-20T09:25:51;4.70;;;1.17;;
35424;SDS011;21537;48.226;16.400;2022-08-20T09:28:17;2.17;;;1.10;;
35424;SDS011;21537;48.226;16.400;2022-08-20T09:30:43;2.28;;;1.23;;
35424;SDS011;21537;48.226;16.400;2022-08-20T09:33:09;1.13;;;1.02;;
35424;SDS011;21537;48.226;16.400;2022-08-20T09:35:35;1.88;;;1.08;;
35424;SDS011;21537;48.226;16.400;2022-08-20T09:38:02;1.95;;;1.00;;
35424;SDS011;21537;48.226;16.400;2022-08-20T09:40:28;1.13;;;1.00;;
35424;SDS011;21537;48.226;16.400;2022-08-20T09:42:54;1.45;;;1.00;;
35424;SDS011;21537;48.226;16.400;2022-08-20T09:45:20;1.13;;;0.90;;
35424;SDS011;21537;48.226;16.400;2022-08-20T09:47:46;2.70;;;1.13;;
35424;SDS011;21537;48.226;16.400;2022-08-20T09:50:12;1.15;;;1.13;;
35424;SDS011;21537;48.226;16.400;2022-08-20T09:52:40;1.55;;;1.17;;
35424;SDS011;21537;48.226;16.400;2022-08-20T09:57:46;0.95;;;0.90;;
35424;SDS011;21537;48.226;16.400;2022-08-20T10:00:14;1.10;;;0.95;;
35424;SDS011;21537;48.226;16.400;2022-08-20T10:02:42;1.23;;;0.90;;
35424;SDS011;21537;48.226;16.400;2022-08-20T10:05:08;2.45;;;1.10;;
35424;SDS011;21537;48.226;16.400;2022-08-20T10:07:34;1.00;;;0.90;;
35424;SDS011;21537;48.226;16.400;2022-08-20T10:10:02;3.35;;;1.00;;
35424;SDS011;21537;48.226;16.400;2022-08-20T10:12:29;1.98;;;1.20;;
35424;SDS011;21537;48.226;16.400;2022-08-20T10:14:55;7.30;;;1.17;;
35424;SDS011;21537;48.226;16.400;2022-08-20T10:17:21;1.02;;;0.90;;
35424;SDS011;21537;48.226;16.400;2022-08-20T10:19:47;1.45;;;1.13;;
35424;SDS011;21537;48.226;16.400;2022-08-20T10:22:13;1.15;;;0.95;;
35424;SDS011;21537;48.226;16.400;2022-08-20T10:24:39;4.55;;;1.20;;
35424;SDS011;21537;48.226;16.400;2022-08-20T10:27:05;0.90;;;0.90;;
35424;SDS011;21537;48.226;16.400;2022-08-20T10:29:32;1.25;;;1.00;;
35424;SDS011;21537;48.226;16.400;2022-08-20T10:32:06;2.85;;;1.30;;
35424;SDS011;21537;48.226;16.400;2022-08-20T10:34:37;2.15;;;1.13;;
35424;SDS011;21537;48.226;16.400;2022-08-20T10:37:07;2.25;;;1.10;;
35424;SDS011;21537;48.226;16.400;2022-08-20T10:39:34;1.30;;;1.20;;
35424;SDS011;21537;48.226;16.400;2022-08-20T10:42:00;1.50;;;1.40;;
35424;SDS011;21537;48.226;16.400;2022-08-20T10:44:26;1.98;;;1.40;;
35424;SDS011;21537;48.226;16.400;2022-08-20T10:46:52;1.40;;;1.30;;
35424;SDS011;21537;48.226;16.400;2022-08-20T10:49:18;2.08;;;1.40;;
35424;SDS011;21537;48.226;16.400;2022-08-20T10:51:43;1.67;;;1.30;;
35424;SDS011;21537;48.226;16.400;2022-08-20T10:54:09;12.57;;;1.58;;
35424;SDS011;21537;48.226;16.400;2022-08-20T10:56:35;1.25;;;1.10;;
35424;SDS011;21537;48.226;16.400;2022-08-20T10:59:01;1.52;;;1.30;;
35424;SDS011;21537;48.226;16.400;2022-08-20T11:01:27;1.83;;;1.10;;
35424;SDS011;21537;48.226;16.400;2022-08-20T11:03:52;1.60;;;1.45;;
35424;SDS011;21537;48.226;16.400;2022-08-20T11:06:18;2.25;;;1.40;;
35424;SDS011;21537;48.226;16.400;2022-08-20T11:08:44;2.70;;;1.45;;
35424;SDS011;21537;48.226;16.400;2022-08-20T11:11:10;2.35;;;1.40;;
35424;SDS011;21537;48.226;16.400;2022-08-20T11:13:36;1.42;;;1.33;;
35424;SDS011;21537;48.226;16.400;2022-08-20T11:16:02;3.22;;;1.40;;
35424;SDS011;21537;48.226;16.400;2022-08-20T11:18:29;1.95;;;1.70;;
35424;SDS011;21537;48.226;16.400;2022-08-20T11:20:55;2.33;;;2.00;;
35424;SDS011;21537;48.226;16.400;2022-08-20T11:23:22;2.63;;;1.90;;
35424;SDS011;21537;48.226;16.400;2022-08-20T11:25:48;4.50;;;2.20;;
35424;SDS011;21537;48.226;16.400;2022-08-20T11:28:14;5.00;;;1.95;;
35424;SDS011;21537;48.226;16.400;2022-08-20T11:30:40;3.85;;;2.20;;
35424;SDS011;21537;48.226;16.400;2022-08-20T11:33:06;2.55;;;1.92;;
35424;SDS011;21537;48.226;16.400;2022-08-20T11:35:33;2.15;;;1.80;;
35424;SDS011;21537;48.226;16.400;2022-08-20T11:38:00;3.13;;;1.88;;
35424;SDS011;21537;48.226;16.400;2022-08-20T11:40:28;2.17;;;1.90;;
35424;SDS011;21537;48.226;16.400;2022-08-20T11:42:54;3.00;;;2.05;;
35424;SDS011;21537;48.226;16.400;2022-08-20T11:45:20;3.53;;;1.73;;
35424;SDS011;21537;48.226;16.400;2022-08-20T11:47:46;2.58;;;2.20;;
35424;SDS011;21537;48.226;16.400;2022-08-20T11:50:16;4.00;;;1.90;;
35424;SDS011;21537;48.226;16.400;2022-08-20T11:52:43;2.58;;;2.03;;
35424;SDS011;21537;48.226;16.400;2022-08-20T11:55:10;3.35;;;1.95;;
35424;SDS011;21537;48.226;16.400;2022-08-20T11:57:39;4.15;;;2.00;;
35424;SDS011;21537;48.226;16.400;2022-08-20T12:00:09;2.78;;;2.15;;
35424;SDS011;21537;48.226;16.400;2022-08-20T12:02:37;4.35;;;1.98;;
35424;SDS011;21537;48.226;16.400;2022-08-20T12:05:04;4.93;;;2.25;;
35424;SDS011;21537;48.226;16.400;2022-08-20T12:07:30;2.80;;;2.05;;
35424;SDS011;21537;48.226;16.400;2022-08-20T12:09:56;3.15;;;1.95;;
35424;SDS011;21537;48.226;16.400;2022-08-20T12:12:22;2.60;;;2.10;;
35424;SDS011;21537;48.226;16.400;2022-08-20T12:14:49;3.72;;;2.38;;
35424;SDS011;21537;48.226;16.400;2022-08-20T12:17:17;2.55;;;2.10;;
35424;SDS011;21537;48.226;16.400;2022-08-20T12:19:47;5.30;;;1.90;;
35424;SDS011;21537;48.226;16.400;2022-08-20T12:22:15;2.03;;;1.80;;
35424;SDS011;21537;48.226;16.400;2022-08-20T12:24:41;2.13;;;1.92;;
35424;SDS011;21537;48.226;16.400;2022-08-20T12:27:20;2.83;;;2.15;;
35424;SDS011;21537;48.226;16.400;2022-08-20T12:29:49;2.60;;;2.20;;
35424;SDS011;21537;48.226;16.400;2022-08-20T12:32:18;4.38;;;2.60;;
35424;SDS011;21537;48.226;16.400;2022-08-20T12:34:47;3.45;;;2.30;;
35424;SDS011;21537;48.226;16.400;2022-08-20T12:37:14;4.95;;;2.92;;
35424;SDS011;21537;48.226;16.400;2022-08-20T12:39:43;6.10;;;2.58;;
35424;SDS011;21537;48.226;16.400;2022-08-20T12:42:12;5.10;;;3.03;;
35424;SDS011;21537;48.226;16.400;2022-08-20T12:44:38;8.60;;;2.63;;
35424;SDS011;21537;48.226;16.400;2022-08-20T12:49:32;5.65;;;2.20;;
35424;SDS011;21537;48.226;16.400;2022-08-20T12:51:57;2.42;;;2.15;;
35424;SDS011;21537;48.226;16.400;2022-08-20T12:54:23;2.33;;;2.13;;
35424;SDS011;21537;48.226;16.400;2022-08-20T12:56:49;4.18;;;2.20;;
35424;SDS011;21537;48.226;16.400;2022-08-20T12:59:16;5.15;;;2.70;;
35424;SDS011;21537;48.226;16.400;2022-08-20T13:01:42;4.78;;;2.40;;
35424;SDS011;21537;48.226;16.400;2022-08-20T13:04:08;7.43;;;2.45;;
35424;SDS011;21537;48.226;16.400;2022-08-20T13:06:34;2.63;;;2.05;;
35424;SDS011;21537;48.226;16.400;2022-08-20T13:09:00;3.75;;;2.50;;
35424;SDS011;21537;48.226;16.400;2022-08-20T13:11:25;4.82;;;2.40;;
35424;SDS011;21537;48.226;16.400;2022-08-20T13:13:51;2.72;;;2.33;;
35424;SDS011;21537;48.226;16.400;2022-08-20T13:16:17;8.15;;;2.83;;
35424;SDS011;21537;48.226;16.400;2022-08-20T13:18:43;2.97;;;2.17;;
35424;SDS011;21537;48.226;16.400;2022-08-20T13:21:11;3.28;;;2.65;;
35424;SDS011;21537;48.226;16.400;2022-08-20T13:23:37;3.53;;;2.58;;
35424;SDS011;21537;48.226;16.400;2022-08-20T13:26:03;3.45;;;2.42;;
35424;SDS011;21537;48.226;16.400;2022-08-20T13:28:29;2.55;;;2.33;;
35424;SDS011;21537;48.226;16.400;2022-08-20T13:30:55;2.72;;;2.33;;
35424;SDS011;21537;48.226;16.400;2022-08-20T13:33:22;2.97;;;2.10;;
35424;SDS011;21537;48.226;16.400;2022-08-20T13:35:50;3.38;;;2.45;;
35424;SDS011;21537;48.226;16.400;2022-08-20T13:38:16;3.13;;;2.20;;
35424;SDS011;21537;48.226;16.400;2022-08-20T13:40:42;2.53;;;2.15;;
35424;SDS011;21537;48.226;16.400;2022-08-20T13:43:08;3.00;;;2.38;;
35424;SDS011;21537;48.226;16.400;2022-08-20T13:45:35;3.00;;;2.17;;
35424;SDS011;21537;48.226;16.400;2022-08-20T13:48:01;2.42;;;2.08;;
35424;SDS011;21537;48.226;16.400;2022-08-20T13:50:28;2.17;;;1.88;;
35424;SDS011;21537;48.226;16.400;2022-08-20T13:52:53;2.88;;;2.35;;
35424;SDS011;21537;48.226;16.400;2022-08-20T13:55:20;4.05;;;2.28;;
35424;SDS011;21537;48.226;16.400;2022-08-20T13:57:48;2.10;;;1.80;;
35424;SDS011;21537;48.226;16.400;2022-08-20T14:00:20;2.53;;;2.20;;
35424;SDS011;21537;48.226;16.400;2022-08-20T14:02:51;3.17;;;2.38;;
35424;SDS011;21537;48.226;16.400;2022-08-20T14:05:16;3.35;;;2.40;;
35424;SDS011;21537;48.226;16.400;2022-08-20T14:07:43;4.53;;;2.42;;
35424;SDS011;21537;48.226;16.400;2022-08-20T14:10:13;3.55;;;2.63;;
35424;SDS011;21537;48.226;16.400;2022-08-20T14:12:44;5.85;;;2.10;;
35424;SDS011;21537;48.226;16.400;2022-08-20T14:15:10;3.25;;;2.40;;
35424;SDS011;21537;48.226;16.400;2022-08-20T14:17:38;2.88;;;2.58;;
35424;SDS011;21537;48.226;16.400;2022-08-20T14:20:14;5.05;;;2.67;;
35424;SDS011;21537;48.226;16.400;2022-08-20T14:22:41;3.35;;;2.78;;
35424;SDS011;21537;48.226;16.400;2022-08-20T14:25:08;3.28;;;2.70;;
35424;SDS011;21537;48.226;16.400;2022-08-20T14:27:35;3.13;;;2.63;;
35424;SDS011;21537;48.226;16.400;2022-08-20T14:30:02;4.10;;;2.92;;
35424;SDS011;21537;48.226;16.400;2022-08-20T14:32:32;4.75;;;2.90;;
35424;SDS011;21537;48.226;16.400;2022-08-20T14:34:58;7.03;;;2.97;;
35424;SDS011;21537;48.226;16.400;2022-08-20T14:37:30;2.90;;;2.65;;
35424;SDS011;21537;48.226;16.400;2022-08-20T14:39:59;4.07;;;2.97;;
35424;SDS011;21537;48.226;16.400;2022-08-20T14:42:26;5.32;;;2.70;;
35424;SDS011;21537;48.226;16.400;2022-08-20T14:44:54;8.98;;;3.30;;
35424;SDS011;21537;48.226;16.400;2022-08-20T14:47:22;4.72;;;3.25;;
35424;SDS011;21537;48.226;16.400;2022-08-20T14:49:54;3.38;;;2.80;;
35424;SDS011;21537;48.226;16.400;2022-08-20T14:52:26;3.30;;;2.90;;
35424;SDS011;21537;48.226;16.400;2022-08-20T14:54:52;6.55;;;3.03;;
35424;SDS011;21537;48.226;16.400;2022-08-20T14:57:18;3.53;;;3.20;;
35424;SDS011;21537;48.226;16.400;2022-08-20T14:59:45;6.15;;;3.47;;
35424;SDS011;21537;48.226;16.400;2022-08-20T15:02:12;7.43;;;3.33;;